sensor_id;sensor_type;location;lat;lon;timestamp;P1;durP1;ratioP1;P2;durP2;ratioP2
21272;SDS011;36726;52.328;10.552;2023-03-03T00:01:27;13.50;;;7.15;;
21272;SDS011;36726;52.328;10.552;2023-03-03T00:03:54;16.10;;;7.10;;
21272;SDS011;36726;52.328;10.552;2023-03-03T00:06:22;13.55;;;7.00;;
21272;SDS011;36726;52.328;10.552;2023-03-03T00:08:50;13.20;;;7.32;;
21272;SDS011;36726;52.328;10.552;2023-03-03T00:11:16;15.80;;;7.40;;
21272;SDS011;36726;52.328;10.552;2023-03-03T00:13:47;13.35;;;6.85;;
21272;SDS011;36726;52.328;10.552;2023-03-03T00:16:19;10.95;;;6.50;;
21272;SDS011;36726;52.328;10.552;2023-03-03T00:18:47;13.57;;;6.20;;
21272;SDS011;36726;52.328;10.552;2023-03-03T00:21:18;16.75;;;7.05;;
21272;SDS011;36726;52.328;10.552;2023-03-03T00:23:51;17.13;;;6.82;;
21272;SDS011;36726;52.328;10.552;2023-03-03T00:26:30;14.45;;;6.55;;
21272;SDS011;36726;52.328;10.552;2023-03-03T00:29:02;15.60;;;6.68;;
21272;SDS011;36726;52.328;10.552;2023-03-03T00:34:46;13.90;;;7.03;;
21272;SDS011;36726;52.328;10.552;2023-03-03T00:37:33;12.98;;;7.43;;
21272;SDS011;36726;52.328;10.552;2023-03-03T00:42:53;15.10;;;7.60;;
21272;SDS011;36726;52.328;10.552;2023-03-03T00:45:25;14.05;;;7.32;;
21272;SDS011;36726;52.328;10.552;2023-03-03T00:47:58;15.50;;;7.90;;
21272;SDS011;36726;52.328;10.552;2023-03-03T00:50:42;17.77;;;8.10;;
21272;SDS011;36726;52.328;10.552;2023-03-03T00:53:10;13.77;;;7.78;;
21272;SDS011;36726;52.328;10.552;2023-03-03T00:55:39;24.90;;;7.88;;
21272;SDS011;36726;52.328;10.552;2023-03-03T00:58:06;16.65;;;8.23;;
21272;SDS011;36726;52.328;10.552;2023-03-03T01:00:38;18.30;;;7.78;;
21272;SDS011;36726;52.328;10.552;2023-03-03T01:03:08;17.35;;;8.95;;
21272;SDS011;36726;52.328;10.552;2023-03-03T01:05:37;19.88;;;8.13;;
21272;SDS011;36726;52.328;10.552;2023-03-03T01:08:04;19.15;;;8.55;;
21272;SDS011;36726;52.328;10.552;2023-03-03T01:10:33;21.67;;;9.48;;
21272;SDS011;36726;52.328;10.552;2023-03-03T01:13:03;15.82;;;8.80;;
21272;SDS011;36726;52.328;10.552;2023-03-03T01:15:31;17.70;;;8.30;;
21272;SDS011;36726;52.328;10.552;2023-03-03T01:17:58;19.67;;;8.63;;
21272;SDS011;36726;52.328;10.552;2023-03-03T01:20:24;15.82;;;8.50;;
21272;SDS011;36726;52.328;10.552;2023-03-03T01:22:52;20.30;;;9.15;;
21272;SDS011;36726;52.328;10.552;2023-03-03T01:25:18;14.93;;;8.13;;
21272;SDS011;36726;52.328;10.552;2023-03-03T01:27:45;14.63;;;8.23;;
21272;SDS011;36726;52.328;10.552;2023-03-03T01:30:11;15.43;;;8.13;;
21272;SDS011;36726;52.328;10.552;2023-03-03T01:32:38;18.10;;;8.35;;
21272;SDS011;36726;52.328;10.552;2023-03-03T01:35:05;17.88;;;7.53;;
21272;SDS011;36726;52.328;10.552;2023-03-03T01:37:33;17.30;;;8.40;;
21272;SDS011;36726;52.328;10.552;2023-03-03T01:40:01;12.98;;;7.72;;
21272;SDS011;36726;52.328;10.552;2023-03-03T01:42:32;20.77;;;7.78;;
21272;SDS011;36726;52.328;10.552;2023-03-03T01:45:09;16.00;;;7.05;;
21272;SDS011;36726;52.328;10.552;2023-03-03T01:47:53;17.65;;;7.28;;
21272;SDS011;36726;52.328;10.552;2023-03-03T01:50:35;17.10;;;7.60;;
21272;SDS011;36726;52.328;10.552;2023-03-03T01:56:08;15.38;;;6.95;;
21272;SDS011;36726;52.328;10.552;2023-03-03T01:58:36;15.50;;;7.40;;
21272;SDS011;36726;52.328;10.552;2023-03-03T02:01:08;17.13;;;8.05;;
21272;SDS011;36726;52.328;10.552;2023-03-03T02:03:39;16.40;;;7.28;;
21272;SDS011;36726;52.328;10.552;2023-03-03T02:06:07;13.93;;;7.22;;
21272;SDS011;36726;52.328;10.552;2023-03-03T02:08:50;14.20;;;7.32;;
21272;SDS011;36726;52.328;10.552;2023-03-03T02:11:28;13.35;;;7.75;;
21272;SDS011;36726;52.328;10.552;2023-03-03T02:13:57;17.88;;;8.45;;
21272;SDS011;36726;52.328;10.552;2023-03-03T02:16:24;19.30;;;8.35;;
21272;SDS011;36726;52.328;10.552;2023-03-03T02:18:51;16.25;;;7.93;;
21272;SDS011;36726;52.328;10.552;2023-03-03T02:21:21;16.65;;;8.55;;
21272;SDS011;36726;52.328;10.552;2023-03-03T02:26:29;18.70;;;8.25;;
21272;SDS011;36726;52.328;10.552;2023-03-03T02:29:04;15.05;;;7.55;;
21272;SDS011;36726;52.328;10.552;2023-03-03T02:31:33;15.85;;;7.68;;
21272;SDS011;36726;52.328;10.552;2023-03-03T02:33:59;16.92;;;7.88;;
21272;SDS011;36726;52.328;10.552;2023-03-03T02:36:30;19.13;;;8.00;;
21272;SDS011;36726;52.328;10.552;2023-03-03T02:42:21;20.83;;;8.15;;
21272;SDS011;36726;52.328;10.552;2023-03-03T02:44:25;15.73;;;7.88;;
21272;SDS011;36726;52.328;10.552;2023-03-03T02:46:57;13.75;;;7.75;;
21272;SDS011;36726;52.328;10.552;2023-03-03T02:49:25;16.55;;;7.63;;
21272;SDS011;36726;52.328;10.552;2023-03-03T02:51:55;18.90;;;8.60;;
21272;SDS011;36726;52.328;10.552;2023-03-03T02:54:23;20.30;;;8.55;;
21272;SDS011;36726;52.328;10.552;2023-03-03T02:56:51;19.05;;;8.32;;
21272;SDS011;36726;52.328;10.552;2023-03-03T02:59:19;14.88;;;7.88;;
21272;SDS011;36726;52.328;10.552;2023-03-03T03:01:47;15.68;;;7.97;;
21272;SDS011;36726;52.328;10.552;2023-03-03T03:04:18;18.50;;;8.40;;
21272;SDS011;36726;52.328;10.552;2023-03-03T03:06:48;19.25;;;8.43;;
21272;SDS011;36726;52.328;10.552;2023-03-03T03:09:16;17.58;;;8.07;;
21272;SDS011;36726;52.328;10.552;2023-03-03T03:11:46;15.98;;;8.48;;
21272;SDS011;36726;52.328;10.552;2023-03-03T03:14:16;18.85;;;8.20;;
21272;SDS011;36726;52.328;10.552;2023-03-03T03:16:43;14.65;;;7.43;;
21272;SDS011;36726;52.328;10.552;2023-03-03T03:19:09;14.27;;;7.88;;
21272;SDS011;36726;52.328;10.552;2023-03-03T03:21:37;17.90;;;7.93;;
21272;SDS011;36726;52.328;10.552;2023-03-03T03:24:05;18.35;;;8.68;;
21272;SDS011;36726;52.328;10.552;2023-03-03T03:26:34;19.90;;;8.15;;
21272;SDS011;36726;52.328;10.552;2023-03-03T03:29:01;15.60;;;7.90;;
21272;SDS011;36726;52.328;10.552;2023-03-03T03:31:28;15.38;;;7.10;;
21272;SDS011;36726;52.328;10.552;2023-03-03T03:33:55;19.25;;;7.63;;
21272;SDS011;36726;52.328;10.552;2023-03-03T03:36:22;16.77;;;7.35;;
21272;SDS011;36726;52.328;10.552;2023-03-03T03:38:49;20.17;;;7.70;;
21272;SDS011;36726;52.328;10.552;2023-03-03T03:41:16;17.35;;;7.35;;
21272;SDS011;36726;52.328;10.552;2023-03-03T03:43:43;14.27;;;7.28;;
21272;SDS011;36726;52.328;10.552;2023-03-03T03:46:10;13.18;;;6.93;;
21272;SDS011;36726;52.328;10.552;2023-03-03T03:48:36;15.35;;;7.13;;
21272;SDS011;36726;52.328;10.552;2023-03-03T03:51:04;16.27;;;7.60;;
21272;SDS011;36726;52.328;10.552;2023-03-03T03:53:32;17.00;;;7.75;;
21272;SDS011;36726;52.328;10.552;2023-03-03T03:55:59;16.52;;;7.65;;
21272;SDS011;36726;52.328;10.552;2023-03-03T03:58:25;14.10;;;6.88;;
21272;SDS011;36726;52.328;10.552;2023-03-03T04:01:04;16.50;;;7.45;;
21272;SDS011;36726;52.328;10.552;2023-03-03T04:03:35;16.00;;;7.55;;
21272;SDS011;36726;52.328;10.552;2023-03-03T04:06:06;18.27;;;8.05;;
21272;SDS011;36726;52.328;10.552;2023-03-03T04:08:33;15.00;;;7.22;;
21272;SDS011;36726;52.328;10.552;2023-03-03T04:11:00;17.92;;;7.57;;
21272;SDS011;36726;52.328;10.552;2023-03-03T04:13:27;14.93;;;7.63;;
21272;SDS011;36726;52.328;10.552;2023-03-03T04:15:58;16.08;;;7.97;;
21272;SDS011;36726;52.328;10.552;2023-03-03T04:18:27;17.30;;;7.57;;
21272;SDS011;36726;52.328;10.552;2023-03-03T04:20:54;18.40;;;8.18;;
21272;SDS011;36726;52.328;10.552;2023-03-03T04:23:21;17.30;;;7.90;;
21272;SDS011;36726;52.328;10.552;2023-03-03T04:25:48;18.00;;;7.75;;
21272;SDS011;36726;52.328;10.552;2023-03-03T04:28:15;16.52;;;7.80;;
21272;SDS011;36726;52.328;10.552;2023-03-03T04:30:46;21.55;;;8.07;;
21272;SDS011;36726;52.328;10.552;2023-03-03T04:33:15;16.73;;;7.88;;
21272;SDS011;36726;52.328;10.552;2023-03-03T04:35:42;16.20;;;7.85;;
21272;SDS011;36726;52.328;10.552;2023-03-03T04:38:08;18.10;;;8.38;;
21272;SDS011;36726;52.328;10.552;2023-03-03T04:40:38;16.85;;;7.60;;
21272;SDS011;36726;52.328;10.552;2023-03-03T04:43:07;18.77;;;7.97;;
21272;SDS011;36726;52.328;10.552;2023-03-03T04:45:35;16.42;;;8.25;;
21272;SDS011;36726;52.328;10.552;2023-03-03T04:48:02;18.05;;;8.13;;
21272;SDS011;36726;52.328;10.552;2023-03-03T04:50:29;18.38;;;8.65;;
21272;SDS011;36726;52.328;10.552;2023-03-03T04:52:56;16.02;;;7.65;;
21272;SDS011;36726;52.328;10.552;2023-03-03T04:55:23;18.20;;;7.95;;
21272;SDS011;36726;52.328;10.552;2023-03-03T04:57:50;20.38;;;8.82;;
21272;SDS011;36726;52.328;10.552;2023-03-03T05:00:17;15.68;;;8.00;;
21272;SDS011;36726;52.328;10.552;2023-03-03T05:02:44;18.42;;;8.85;;
21272;SDS011;36726;52.328;10.552;2023-03-03T05:05:13;17.23;;;8.52;;
21272;SDS011;36726;52.328;10.552;2023-03-03T05:07:40;18.85;;;8.55;;
21272;SDS011;36726;52.328;10.552;2023-03-03T05:10:06;23.15;;;8.90;;
21272;SDS011;36726;52.328;10.552;2023-03-03T05:12:33;18.27;;;9.15;;
21272;SDS011;36726;52.328;10.552;2023-03-03T05:15:00;25.40;;;10.20;;
21272;SDS011;36726;52.328;10.552;2023-03-03T05:17:27;20.33;;;9.10;;
21272;SDS011;36726;52.328;10.552;2023-03-03T05:19:53;18.45;;;8.85;;
21272;SDS011;36726;52.328;10.552;2023-03-03T05:22:23;19.60;;;9.25;;
21272;SDS011;36726;52.328;10.552;2023-03-03T05:24:50;19.25;;;9.40;;
21272;SDS011;36726;52.328;10.552;2023-03-03T05:27:17;19.20;;;9.10;;
21272;SDS011;36726;52.328;10.552;2023-03-03T05:29:43;19.55;;;9.63;;
21272;SDS011;36726;52.328;10.552;2023-03-03T05:32:10;18.50;;;9.32;;
21272;SDS011;36726;52.328;10.552;2023-03-03T05:34:37;20.92;;;9.25;;
21272;SDS011;36726;52.328;10.552;2023-03-03T05:37:03;19.35;;;9.00;;
21272;SDS011;36726;52.328;10.552;2023-03-03T05:39:32;22.88;;;9.93;;
21272;SDS011;36726;52.328;10.552;2023-03-03T05:41:59;17.23;;;8.93;;
21272;SDS011;36726;52.328;10.552;2023-03-03T05:44:26;18.73;;;9.40;;
21272;SDS011;36726;52.328;10.552;2023-03-03T05:46:52;20.40;;;8.82;;
21272;SDS011;36726;52.328;10.552;2023-03-03T05:49:19;17.73;;;8.65;;
21272;SDS011;36726;52.328;10.552;2023-03-03T05:51:46;18.77;;;9.15;;
21272;SDS011;36726;52.328;10.552;2023-03-03T05:54:12;19.25;;;8.70;;
21272;SDS011;36726;52.328;10.552;2023-03-03T05:56:38;20.50;;;9.95;;
21272;SDS011;36726;52.328;10.552;2023-03-03T05:59:05;16.75;;;8.82;;
21272;SDS011;36726;52.328;10.552;2023-03-03T06:01:31;18.83;;;9.57;;
21272;SDS011;36726;52.328;10.552;2023-03-03T06:03:59;24.77;;;9.68;;
21272;SDS011;36726;52.328;10.552;2023-03-03T06:06:25;21.00;;;9.77;;
21272;SDS011;36726;52.328;10.552;2023-03-03T06:08:53;20.27;;;9.60;;
21272;SDS011;36726;52.328;10.552;2023-03-03T06:11:22;18.13;;;8.80;;
21272;SDS011;36726;52.328;10.552;2023-03-03T06:13:49;24.17;;;10.13;;
21272;SDS011;36726;52.328;10.552;2023-03-03T06:16:17;21.10;;;9.50;;
21272;SDS011;36726;52.328;10.552;2023-03-03T06:18:43;21.27;;;9.48;;
21272;SDS011;36726;52.328;10.552;2023-03-03T06:21:10;22.52;;;9.80;;
21272;SDS011;36726;52.328;10.552;2023-03-03T06:23:37;21.50;;;9.35;;
21272;SDS011;36726;52.328;10.552;2023-03-03T06:26:03;21.05;;;9.30;;
21272;SDS011;36726;52.328;10.552;2023-03-03T06:28:30;17.58;;;8.95;;
21272;SDS011;36726;52.328;10.552;2023-03-03T06:30:58;21.05;;;9.35;;
21272;SDS011;36726;52.328;10.552;2023-03-03T06:33:25;18.75;;;9.50;;
21272;SDS011;36726;52.328;10.552;2023-03-03T06:35:52;20.30;;;9.48;;
21272;SDS011;36726;52.328;10.552;2023-03-03T06:38:19;19.65;;;8.68;;
21272;SDS011;36726;52.328;10.552;2023-03-03T06:40:46;18.88;;;8.45;;
21272;SDS011;36726;52.328;10.552;2023-03-03T06:43:13;17.40;;;9.30;;
21272;SDS011;36726;52.328;10.552;2023-03-03T06:45:39;19.25;;;9.32;;
21272;SDS011;36726;52.328;10.552;2023-03-03T06:48:06;20.83;;;9.18;;
21272;SDS011;36726;52.328;10.552;2023-03-03T06:50:33;21.73;;;9.25;;
21272;SDS011;36726;52.328;10.552;2023-03-03T06:53:13;16.80;;;9.05;;
21272;SDS011;36726;52.328;10.552;2023-03-03T06:55:43;20.52;;;9.88;;
21272;SDS011;36726;52.328;10.552;2023-03-03T06:58:11;27.20;;;10.57;;
21272;SDS011;36726;52.328;10.552;2023-03-03T07:00:42;17.98;;;9.35;;
21272;SDS011;36726;52.328;10.552;2023-03-03T07:03:14;23.98;;;9.70;;
21272;SDS011;36726;52.328;10.552;2023-03-03T07:05:48;21.98;;;10.18;;
21272;SDS011;36726;52.328;10.552;2023-03-03T07:08:16;20.60;;;9.95;;
21272;SDS011;36726;52.328;10.552;2023-03-03T07:10:46;19.85;;;9.98;;
21272;SDS011;36726;52.328;10.552;2023-03-03T07:13:15;19.35;;;10.07;;
21272;SDS011;36726;52.328;10.552;2023-03-03T07:15:44;18.88;;;10.35;;
21272;SDS011;36726;52.328;10.552;2023-03-03T07:23:48;19.80;;;10.27;;
21272;SDS011;36726;52.328;10.552;2023-03-03T07:26:17;18.17;;;9.20;;
21272;SDS011;36726;52.328;10.552;2023-03-03T07:28:55;25.75;;;10.23;;
21272;SDS011;36726;52.328;10.552;2023-03-03T07:31:42;15.73;;;8.40;;
21272;SDS011;36726;52.328;10.552;2023-03-03T07:36:48;18.58;;;9.23;;
21272;SDS011;36726;52.328;10.552;2023-03-03T07:39:23;23.13;;;10.25;;
21272;SDS011;36726;52.328;10.552;2023-03-03T07:41:55;19.48;;;9.88;;
21272;SDS011;36726;52.328;10.552;2023-03-03T07:44:33;20.25;;;10.00;;
21272;SDS011;36726;52.328;10.552;2023-03-03T07:47:17;20.42;;;9.85;;
21272;SDS011;36726;52.328;10.552;2023-03-03T07:49:47;19.90;;;9.15;;
21272;SDS011;36726;52.328;10.552;2023-03-03T07:55:25;18.40;;;9.60;;
21272;SDS011;36726;52.328;10.552;2023-03-03T07:57:57;17.75;;;9.05;;
21272;SDS011;36726;52.328;10.552;2023-03-03T08:03:11;21.65;;;10.00;;
21272;SDS011;36726;52.328;10.552;2023-03-03T08:05:46;19.90;;;10.25;;
21272;SDS011;36726;52.328;10.552;2023-03-03T08:11:02;21.27;;;10.05;;
21272;SDS011;36726;52.328;10.552;2023-03-03T08:21:05;29.17;;;12.43;;
21272;SDS011;36726;52.328;10.552;2023-03-03T08:23:36;24.98;;;12.73;;
21272;SDS011;36726;52.328;10.552;2023-03-03T08:26:02;19.58;;;10.55;;
21272;SDS011;36726;52.328;10.552;2023-03-03T08:28:29;23.88;;;11.07;;
21272;SDS011;36726;52.328;10.552;2023-03-03T08:30:56;22.27;;;10.07;;
21272;SDS011;36726;52.328;10.552;2023-03-03T08:33:41;19.38;;;9.23;;
21272;SDS011;36726;52.328;10.552;2023-03-03T08:36:09;17.63;;;9.45;;
21272;SDS011;36726;52.328;10.552;2023-03-03T08:38:37;19.75;;;9.35;;
21272;SDS011;36726;52.328;10.552;2023-03-03T08:41:04;21.15;;;9.93;;
21272;SDS011;36726;52.328;10.552;2023-03-03T08:43:32;19.45;;;9.38;;
21272;SDS011;36726;52.328;10.552;2023-03-03T08:45:59;17.33;;;8.63;;
21272;SDS011;36726;52.328;10.552;2023-03-03T08:48:27;17.05;;;8.90;;
21272;SDS011;36726;52.328;10.552;2023-03-03T08:50:54;12.23;;;8.18;;
21272;SDS011;36726;52.328;10.552;2023-03-03T08:53:21;18.73;;;8.50;;
21272;SDS011;36726;52.328;10.552;2023-03-03T08:55:48;16.17;;;8.40;;
21272;SDS011;36726;52.328;10.552;2023-03-03T08:58:16;15.43;;;7.95;;
21272;SDS011;36726;52.328;10.552;2023-03-03T09:00:46;16.30;;;8.65;;
21272;SDS011;36726;52.328;10.552;2023-03-03T09:03:16;20.23;;;9.18;;
21272;SDS011;36726;52.328;10.552;2023-03-03T09:05:42;17.52;;;8.38;;
21272;SDS011;36726;52.328;10.552;2023-03-03T09:08:10;15.63;;;8.50;;
21272;SDS011;36726;52.328;10.552;2023-03-03T09:10:37;17.80;;;8.48;;
21272;SDS011;36726;52.328;10.552;2023-03-03T09:13:11;18.10;;;8.80;;
21272;SDS011;36726;52.328;10.552;2023-03-03T09:15:40;17.02;;;8.63;;
21272;SDS011;36726;52.328;10.552;2023-03-03T09:18:12;15.38;;;8.48;;
21272;SDS011;36726;52.328;10.552;2023-03-03T09:20:50;14.02;;;8.52;;
21272;SDS011;36726;52.328;10.552;2023-03-03T09:25:49;15.70;;;8.20;;
21272;SDS011;36726;52.328;10.552;2023-03-03T09:30:57;19.17;;;8.05;;
21272;SDS011;36726;52.328;10.552;2023-03-03T09:33:40;15.60;;;9.02;;
21272;SDS011;36726;52.328;10.552;2023-03-03T09:36:18;15.82;;;8.65;;
21272;SDS011;36726;52.328;10.552;2023-03-03T09:38:55;16.90;;;8.82;;
21272;SDS011;36726;52.328;10.552;2023-03-03T09:44:29;16.08;;;8.93;;
21272;SDS011;36726;52.328;10.552;2023-03-03T09:50:50;21.10;;;10.18;;
21272;SDS011;36726;52.328;10.552;2023-03-03T09:56:18;18.60;;;9.93;;
21272;SDS011;36726;52.328;10.552;2023-03-03T10:01:44;20.60;;;9.38;;
21272;SDS011;36726;52.328;10.552;2023-03-03T10:04:32;17.88;;;9.18;;
21272;SDS011;36726;52.328;10.552;2023-03-03T10:12:36;14.52;;;8.55;;
21272;SDS011;36726;52.328;10.552;2023-03-03T10:15:33;18.67;;;9.32;;
21272;SDS011;36726;52.328;10.552;2023-03-03T10:21:10;13.80;;;7.72;;
21272;SDS011;36726;52.328;10.552;2023-03-03T10:23:52;15.77;;;7.68;;
21272;SDS011;36726;52.328;10.552;2023-03-03T10:26:47;15.18;;;8.10;;
21272;SDS011;36726;52.328;10.552;2023-03-03T10:29:54;14.90;;;7.43;;
21272;SDS011;36726;52.328;10.552;2023-03-03T10:43:49;16.23;;;8.32;;
21272;SDS011;36726;52.328;10.552;2023-03-03T10:49:14;16.58;;;8.60;;
21272;SDS011;36726;52.328;10.552;2023-03-03T10:54:51;18.90;;;9.75;;
21272;SDS011;36726;52.328;10.552;2023-03-03T11:00:22;18.05;;;9.20;;
21272;SDS011;36726;52.328;10.552;2023-03-03T11:05:57;13.52;;;7.63;;
21272;SDS011;36726;52.328;10.552;2023-03-03T11:08:28;15.27;;;7.50;;
21272;SDS011;36726;52.328;10.552;2023-03-03T11:11:08;11.38;;;7.05;;
21272;SDS011;36726;52.328;10.552;2023-03-03T11:14:12;10.98;;;7.13;;
21272;SDS011;36726;52.328;10.552;2023-03-03T11:17:04;16.30;;;7.72;;
21272;SDS011;36726;52.328;10.552;2023-03-03T11:19:55;14.27;;;7.60;;
21272;SDS011;36726;52.328;10.552;2023-03-03T11:28:13;15.23;;;7.72;;
21272;SDS011;36726;52.328;10.552;2023-03-03T11:31:01;16.58;;;8.50;;
21272;SDS011;36726;52.328;10.552;2023-03-03T11:39:08;19.00;;;10.85;;
21272;SDS011;36726;52.328;10.552;2023-03-03T11:41:41;20.00;;;10.55;;
21272;SDS011;36726;52.328;10.552;2023-03-03T11:44:28;14.57;;;8.50;;
21272;SDS011;36726;52.328;10.552;2023-03-03T11:55:16;14.45;;;7.30;;
21272;SDS011;36726;52.328;10.552;2023-03-03T11:58:11;12.30;;;6.18;;
21272;SDS011;36726;52.328;10.552;2023-03-03T12:00:59;15.88;;;8.85;;
21272;SDS011;36726;52.328;10.552;2023-03-03T12:11:27;12.38;;;6.93;;
21272;SDS011;36726;52.328;10.552;2023-03-03T12:16:44;18.15;;;8.07;;
21272;SDS011;36726;52.328;10.552;2023-03-03T12:22:20;15.48;;;7.72;;
21272;SDS011;36726;52.328;10.552;2023-03-03T12:24:52;16.70;;;8.38;;
21272;SDS011;36726;52.328;10.552;2023-03-03T12:27:29;13.82;;;7.75;;
21272;SDS011;36726;52.328;10.552;2023-03-03T12:35:38;13.75;;;7.28;;
21272;SDS011;36726;52.328;10.552;2023-03-03T12:38:18;14.45;;;7.28;;
21272;SDS011;36726;52.328;10.552;2023-03-03T12:46:54;18.73;;;8.80;;
21272;SDS011;36726;52.328;10.552;2023-03-03T12:49:31;12.45;;;7.00;;
21272;SDS011;36726;52.328;10.552;2023-03-03T12:57:42;15.10;;;7.95;;
21272;SDS011;36726;52.328;10.552;2023-03-03T13:03:10;12.43;;;6.85;;
21272;SDS011;36726;52.328;10.552;2023-03-03T13:06:05;16.23;;;8.43;;
21272;SDS011;36726;52.328;10.552;2023-03-03T13:08:52;16.10;;;8.23;;
21272;SDS011;36726;52.328;10.552;2023-03-03T13:14:41;17.63;;;9.18;;
21272;SDS011;36726;52.328;10.552;2023-03-03T13:17:34;17.77;;;9.77;;
21272;SDS011;36726;52.328;10.552;2023-03-03T13:20:49;20.75;;;9.73;;
21272;SDS011;36726;52.328;10.552;2023-03-03T13:25:47;17.73;;;8.82;;
21272;SDS011;36726;52.328;10.552;2023-03-03T13:31:05;17.25;;;9.35;;
21272;SDS011;36726;52.328;10.552;2023-03-03T13:33:36;22.38;;;10.35;;
21272;SDS011;36726;52.328;10.552;2023-03-03T13:36:14;17.05;;;9.35;;
21272;SDS011;36726;52.328;10.552;2023-03-03T13:38:45;17.23;;;9.50;;
21272;SDS011;36726;52.328;10.552;2023-03-03T13:46:40;20.67;;;10.50;;
21272;SDS011;36726;52.328;10.552;2023-03-03T13:49:23;20.38;;;10.95;;
21272;SDS011;36726;52.328;10.552;2023-03-03T13:52:01;19.88;;;11.27;;
21272;SDS011;36726;52.328;10.552;2023-03-03T14:05:01;26.48;;;12.75;;
21272;SDS011;36726;52.328;10.552;2023-03-03T14:07:38;22.83;;;12.52;;
21272;SDS011;36726;52.328;10.552;2023-03-03T14:13:10;20.02;;;12.68;;
21272;SDS011;36726;52.328;10.552;2023-03-03T14:18:24;20.88;;;12.48;;
21272;SDS011;36726;52.328;10.552;2023-03-03T14:21:18;25.60;;;13.07;;
21272;SDS011;36726;52.328;10.552;2023-03-03T14:24:06;29.42;;;13.80;;
21272;SDS011;36726;52.328;10.552;2023-03-03T14:26:53;33.15;;;15.25;;
21272;SDS011;36726;52.328;10.552;2023-03-03T14:29:28;29.83;;;15.20;;
21272;SDS011;36726;52.328;10.552;2023-03-03T14:31:58;29.63;;;15.48;;
21272;SDS011;36726;52.328;10.552;2023-03-03T14:34:34;30.85;;;14.15;;
21272;SDS011;36726;52.328;10.552;2023-03-03T14:37:18;30.35;;;15.05;;
21272;SDS011;36726;52.328;10.552;2023-03-03T14:39:59;33.03;;;15.02;;
21272;SDS011;36726;52.328;10.552;2023-03-03T14:42:53;32.28;;;16.65;;
21272;SDS011;36726;52.328;10.552;2023-03-03T14:45:37;29.38;;;15.98;;
21272;SDS011;36726;52.328;10.552;2023-03-03T14:48:17;32.67;;;16.13;;
21272;SDS011;36726;52.328;10.552;2023-03-03T14:50:48;31.63;;;17.17;;
21272;SDS011;36726;52.328;10.552;2023-03-03T14:56:15;31.75;;;17.45;;
21272;SDS011;36726;52.328;10.552;2023-03-03T14:58:47;35.75;;;17.63;;
21272;SDS011;36726;52.328;10.552;2023-03-03T15:01:20;31.98;;;17.33;;
21272;SDS011;36726;52.328;10.552;2023-03-03T15:03:51;30.08;;;17.40;;
21272;SDS011;36726;52.328;10.552;2023-03-03T15:06:46;27.63;;;15.32;;
21272;SDS011;36726;52.328;10.552;2023-03-03T15:09:23;29.30;;;14.98;;
21272;SDS011;36726;52.328;10.552;2023-03-03T15:11:56;26.60;;;14.68;;
21272;SDS011;36726;52.328;10.552;2023-03-03T15:14:31;29.00;;;15.10;;
21272;SDS011;36726;52.328;10.552;2023-03-03T15:19:53;25.20;;;13.55;;
21272;SDS011;36726;52.328;10.552;2023-03-03T15:25:14;23.27;;;12.90;;
21272;SDS011;36726;52.328;10.552;2023-03-03T15:27:52;22.52;;;13.45;;
21272;SDS011;36726;52.328;10.552;2023-03-03T15:30:48;21.25;;;12.50;;
21272;SDS011;36726;52.328;10.552;2023-03-03T15:41:37;22.15;;;11.23;;
21272;SDS011;36726;52.328;10.552;2023-03-03T15:44:30;23.55;;;12.23;;
21272;SDS011;36726;52.328;10.552;2023-03-03T15:47:03;26.35;;;12.10;;
21272;SDS011;36726;52.328;10.552;2023-03-03T15:50:00;25.38;;;12.95;;
21272;SDS011;36726;52.328;10.552;2023-03-03T15:58:18;26.08;;;11.75;;
21272;SDS011;36726;52.328;10.552;2023-03-03T16:03:57;23.95;;;11.82;;
21272;SDS011;36726;52.328;10.552;2023-03-03T16:09:19;21.90;;;11.65;;
21272;SDS011;36726;52.328;10.552;2023-03-03T16:12:02;28.83;;;12.75;;
21272;SDS011;36726;52.328;10.552;2023-03-03T16:15:02;25.08;;;12.93;;
21272;SDS011;36726;52.328;10.552;2023-03-03T16:17:37;25.92;;;13.15;;
21272;SDS011;36726;52.328;10.552;2023-03-03T16:23:05;30.50;;;13.45;;
21272;SDS011;36726;52.328;10.552;2023-03-03T16:31:06;30.52;;;14.02;;
21272;SDS011;36726;52.328;10.552;2023-03-03T16:33:37;33.97;;;14.05;;
21272;SDS011;36726;52.328;10.552;2023-03-03T16:36:12;25.05;;;13.45;;
21272;SDS011;36726;52.328;10.552;2023-03-03T16:38:58;28.40;;;13.30;;
21272;SDS011;36726;52.328;10.552;2023-03-03T16:44:36;27.92;;;13.85;;
21272;SDS011;36726;52.328;10.552;2023-03-03T16:47:15;30.73;;;14.48;;
21272;SDS011;36726;52.328;10.552;2023-03-03T16:49:54;33.90;;;14.02;;
21272;SDS011;36726;52.328;10.552;2023-03-03T16:52:36;30.15;;;13.07;;
21272;SDS011;36726;52.328;10.552;2023-03-03T16:55:17;29.92;;;14.55;;
21272;SDS011;36726;52.328;10.552;2023-03-03T17:06:31;35.95;;;13.70;;
21272;SDS011;36726;52.328;10.552;2023-03-03T17:09:21;25.52;;;13.30;;
21272;SDS011;36726;52.328;10.552;2023-03-03T17:12:13;29.15;;;13.32;;
21272;SDS011;36726;52.328;10.552;2023-03-03T17:15:05;37.17;;;14.98;;
21272;SDS011;36726;52.328;10.552;2023-03-03T17:43:40;34.13;;;13.63;;
21272;SDS011;36726;52.328;10.552;2023-03-03T17:46:33;40.42;;;15.20;;
21272;SDS011;36726;52.328;10.552;2023-03-03T17:52:02;37.47;;;15.38;;
21272;SDS011;36726;52.328;10.552;2023-03-03T18:00:06;34.65;;;15.32;;
21272;SDS011;36726;52.328;10.552;2023-03-03T18:02:44;30.25;;;14.45;;
21272;SDS011;36726;52.328;10.552;2023-03-03T18:09:02;34.13;;;14.23;;
21272;SDS011;36726;52.328;10.552;2023-03-03T18:11:48;30.40;;;14.05;;
21272;SDS011;36726;52.328;10.552;2023-03-03T18:17:34;31.90;;;13.48;;
21272;SDS011;36726;52.328;10.552;2023-03-03T18:20:16;31.48;;;13.98;;
21272;SDS011;36726;52.328;10.552;2023-03-03T18:22:47;33.13;;;14.43;;
21272;SDS011;36726;52.328;10.552;2023-03-03T18:25:25;27.73;;;12.55;;
21272;SDS011;36726;52.328;10.552;2023-03-03T18:28:21;32.28;;;13.25;;
21272;SDS011;36726;52.328;10.552;2023-03-03T18:33:15;31.00;;;14.18;;
21272;SDS011;36726;52.328;10.552;2023-03-03T18:35:42;30.40;;;14.00;;
21272;SDS011;36726;52.328;10.552;2023-03-03T18:49:07;28.75;;;12.32;;
21272;SDS011;36726;52.328;10.552;2023-03-03T18:56:43;31.15;;;14.35;;
21272;SDS011;36726;52.328;10.552;2023-03-03T19:04:48;25.20;;;12.52;;
21272;SDS011;36726;52.328;10.552;2023-03-03T19:07:23;24.77;;;12.02;;
21272;SDS011;36726;52.328;10.552;2023-03-03T19:10:02;33.50;;;13.02;;
21272;SDS011;36726;52.328;10.552;2023-03-03T19:12:51;26.17;;;12.57;;
21272;SDS011;36726;52.328;10.552;2023-03-03T19:17:57;28.27;;;12.63;;
21272;SDS011;36726;52.328;10.552;2023-03-03T19:20:46;29.33;;;13.38;;
21272;SDS011;36726;52.328;10.552;2023-03-03T19:28:54;26.60;;;13.13;;
21272;SDS011;36726;52.328;10.552;2023-03-03T19:34:04;29.00;;;14.18;;
21272;SDS011;36726;52.328;10.552;2023-03-03T19:39:26;37.28;;;15.32;;
21272;SDS011;36726;52.328;10.552;2023-03-03T19:47:32;28.40;;;14.90;;
21272;SDS011;36726;52.328;10.552;2023-03-03T19:56:04;36.53;;;15.32;;
21272;SDS011;36726;52.328;10.552;2023-03-03T19:58:49;29.85;;;14.60;;
21272;SDS011;36726;52.328;10.552;2023-03-03T20:01:45;36.47;;;16.05;;
21272;SDS011;36726;52.328;10.552;2023-03-03T20:07:48;34.17;;;16.02;;